Decoded Metar for UUDD (MOSCOW/DOMODEDOVO in RUSSIA) (IATA:N/A) | Meteo·Mobile Aviation Weather
aviador You're here:

UUDD Decoded Metar

MOSCOW/DOMODEDOVO in RUSSIA
Report Time2018-10-17 04:00:00
UTC Time2018-10-17 05:01:31
Flight Rules vfr VFR
Wind260° at 4 kt
W.Decomp.*RWY 32: 1.4 kt HW 3.8 kt LCW
W.Rank260° ranks 1
Current wind is below 260° avg. (7.9)
Visibility9999 m
Phenomena:N/A
Clouds:N/A
Expected CloudBase > 1,200 ft AGL from Temp-Dew spread
CeilingNone
Temp07°C (ISA -7)
Dew Point04°C (81% RH)
AAT4.2°C
QNH1024 hPa
Density Alt-538 ft
Elevation551 ft
Report Wrong Elevation
Raw Report
METAR UUDD 170400Z 26002MPS 220V290 CAVOK 07/04 Q1024 R88/010095 NOSIG=

Extra information for UUDD:More info

Metar Taf Metar & Taf Last 4 Metars F.Rules Stats Wind Profile Meteogram Temp Stats Airport Information Weather charts Add Link Nearby VenuesMetar ALERT Operation Metar Decoded Social comments